Time;durP1;ratioP1;P1;durP2;ratioP2;P2;SDS_P1;SDS_P2;PMS_P1;PMS_P2;Temp;Humidity;BMP_temperature;BMP_pressure;BME280_temperature;BME280_humidity;BME280_pressure;Samples;Min_cycle;Max_cycle;Signal;HPM_P1;HPM_P2
2023/03/03 00:01:44;;;;;;;0.80;0.80;;;3.30;66.90;;;3.08;54.98;94976.34;5015064;28;20244;-19
2023/03/03 00:04:11;;;;;;;0.70;0.70;;;3.30;67.00;;;3.08;55.08;94973.75;5015199;28;20198;-19
2023/03/03 00:06:38;;;;;;;0.70;0.70;;;3.30;68.00;;;3.03;55.82;94970.78;5015038;28;20205;-19
2023/03/03 00:09:05;;;;;;;0.80;0.80;;;3.30;67.30;;;3.01;56.84;94975.28;5015063;28;20213;-19
2023/03/03 00:11:32;;;;;;;0.80;0.80;;;3.20;67.60;;;3.00;56.84;94976.22;5015119;28;20276;-19
2023/03/03 00:13:59;;;;;;;0.82;0.82;;;3.20;67.80;;;3.00;57.42;94982.25;5015102;28;20194;-19
2023/03/03 00:16:37;;;;;;;0.77;0.77;;;3.20;68.10;;;2.97;57.27;94973.94;5014958;28;20198;-19
2023/03/03 00:19:17;;;;;;;0.90;0.90;;;3.20;68.40;;;2.99;57.05;94978.00;5015271;28;20197;-19
2023/03/03 00:21:50;;;;;;;0.70;0.70;;;3.20;68.30;;;3.00;56.97;94977.06;5015851;28;20193;-19
2023/03/03 00:24:36;;;;;;;0.80;0.80;;;3.20;68.10;;;2.99;55.92;94972.84;5015054;28;20597;-18
2023/03/03 00:27:28;;;;;;;0.70;0.70;;;3.20;67.80;;;2.97;55.45;94977.34;5014823;28;20518;-20
2023/03/03 00:29:59;;;;;;;0.80;0.80;;;3.20;67.60;;;2.92;57.49;94979.53;4998157;28;20306;-19
2023/03/03 00:32:38;;;;;;;0.70;0.70;;;3.20;67.90;;;2.93;57.15;94980.34;4997764;28;20255;-19
2023/03/03 00:35:29;;;;;;;0.80;0.80;;;3.20;68.10;;;2.89;58.45;94982.41;5001612;28;20207;-18
2023/03/03 00:38:09;;;;;;;0.80;0.80;;;3.20;68.50;;;2.82;59.04;94974.41;5019521;28;20256;-18
2023/03/03 00:40:38;;;;;;;0.75;0.75;;;3.20;69.10;;;2.81;59.29;94984.91;5019151;28;20169;-19
2023/03/03 00:43:26;;;;;;;0.80;0.80;;;3.10;69.30;;;2.78;59.19;94972.22;5001975;28;20220;-19
2023/03/03 00:45:55;;;;;;;0.80;0.80;;;3.10;69.20;;;2.76;59.40;94974.97;5001978;28;20248;-19
2023/03/03 00:48:48;;;;;;;0.80;0.80;;;3.10;69.60;;;2.81;58.80;94977.94;5001469;28;20251;-19
2023/03/03 00:51:35;;;;;;;0.80;0.80;;;3.10;69.60;;;2.79;59.21;94976.47;5019167;28;20186;-19
2023/03/03 00:54:02;;;;;;;0.80;0.80;;;3.10;69.50;;;2.79;58.85;94977.25;5018610;28;20201;-19
2023/03/03 00:56:29;;;;;;;0.73;0.73;;;3.10;69.50;;;2.79;58.77;94979.03;5018575;28;20197;-19
2023/03/03 00:58:56;;;;;;;0.80;0.80;;;3.10;69.50;;;2.80;58.42;94975.50;5001230;28;20209;-19
2023/03/03 01:01:26;;;;;;;0.70;0.70;;;3.10;69.40;;;2.82;57.75;94979.56;5017228;28;20233;-19
2023/03/03 01:03:54;;;;;;;0.90;0.90;;;3.10;69.10;;;2.80;58.07;94967.72;5001322;28;20233;-19
2023/03/03 01:06:20;;;;;;;0.85;0.85;;;3.10;69.00;;;2.79;58.11;94971.28;5018438;28;20193;-19
2023/03/03 01:08:47;;;;;;;0.80;0.80;;;3.10;69.10;;;2.76;58.25;94969.78;4985473;28;20193;-19
2023/03/03 01:11:20;;;;;;;0.70;0.70;;;3.10;69.30;;;2.74;58.71;94979.47;5018252;28;20316;-19
2023/03/03 01:13:50;;;;;;;0.90;0.90;;;3.10;69.50;;;2.75;57.78;94964.72;5001474;28;20177;-19
2023/03/03 01:16:17;;;;;;;0.90;0.90;;;3.00;70.10;;;2.76;57.38;94958.59;5000816;28;20212;-19
2023/03/03 01:18:45;;;;;;;0.80;0.80;;;3.00;68.90;;;2.76;56.72;94953.41;5000797;28;20197;-19
2023/03/03 01:21:12;;;;;;;0.70;0.70;;;3.00;68.60;;;2.71;58.33;94964.19;5017361;28;20569;-19
2023/03/03 01:23:39;;;;;;;0.85;0.85;;;3.00;68.90;;;2.67;58.85;94962.84;5017990;28;20335;-19
2023/03/03 01:26:07;;;;;;;0.75;0.75;;;3.00;69.30;;;2.68;58.79;94959.31;5016813;28;20276;-18
2023/03/03 01:28:35;;;;;;;0.90;0.90;;;3.00;69.30;;;2.66;58.75;94956.03;5000659;28;20604;-19
2023/03/03 01:31:03;;;;;;;0.80;0.80;;;3.00;69.40;;;2.65;58.57;94950.06;5017803;28;20225;-19
2023/03/03 01:33:33;;;;;;;0.70;0.70;;;2.90;69.40;;;2.65;58.46;94962.19;5017785;28;20185;-19
2023/03/03 01:36:00;;;;;;;0.80;0.80;;;2.90;69.50;;;2.63;58.69;94953.75;5000713;28;20185;-18
2023/03/03 01:38:27;;;;;;;0.70;0.70;;;2.90;69.40;;;2.61;58.01;94959.06;5016517;28;20206;-18
2023/03/03 01:40:59;;;;;;;0.80;0.80;;;2.90;69.40;;;2.59;57.69;94957.56;5017680;28;20189;-19
2023/03/03 01:43:29;;;;;;;0.70;0.70;;;2.90;69.30;;;2.57;57.96;94957.72;5017061;28;20590;-19
2023/03/03 01:45:56;;;;;;;0.70;0.70;;;2.90;69.20;;;2.55;58.07;94960.44;5016341;28;20617;-19
2023/03/03 01:48:37;;;;;;;0.80;0.80;;;2.90;69.20;;;2.50;58.50;94956.63;5016443;28;20209;-20
2023/03/03 01:51:26;;;;;;;0.82;0.82;;;2.80;69.30;;;2.52;57.89;94950.38;5000961;28;20216;-19
2023/03/03 01:54:00;;;;;;;0.80;0.80;;;2.80;69.10;;;2.46;58.80;94953.50;5017484;28;20170;-19
2023/03/03 01:56:27;;;;;;;0.90;0.90;;;2.80;69.40;;;2.45;58.76;94953.66;5016816;28;20251;-18
2023/03/03 01:59:11;;;;;;;0.80;0.80;;;2.80;69.60;;;2.41;58.25;94955.72;4983858;28;20712;-19
2023/03/03 02:01:39;;;;;;;0.77;0.77;;;2.70;69.40;;;2.39;57.90;94950.69;4985217;28;20233;-19
2023/03/03 02:04:08;;;;;;;0.80;0.80;;;2.70;69.30;;;2.38;57.98;94961.16;5017508;28;20193;-20
2023/03/03 02:06:43;;;;;;;0.80;0.80;;;2.70;69.30;;;2.38;58.61;94955.97;5016397;28;20272;-19
2023/03/03 02:09:57;;;;;;;0.90;0.90;;;2.70;69.50;;;2.37;58.15;94956.97;5016153;28;20181;-18
2023/03/03 02:12:41;;;;;;;0.70;0.70;;;2.70;69.40;;;2.35;57.88;94956.28;5017198;28;20197;-20
2023/03/03 02:15:27;;;;;;;0.70;0.70;;;2.70;69.30;;;2.31;57.96;94947.16;5000019;28;20594;-19
2023/03/03 02:18:03;;;;;;;0.70;0.70;;;2.60;69.30;;;2.30;57.81;94942.94;5016005;28;20201;-19
2023/03/03 02:20:53;;;;;;;0.80;0.80;;;2.60;70.20;;;2.33;57.48;94950.41;5016401;28;20510;-20
2023/03/03 02:24:14;;;;;;;0.80;0.80;;;2.60;69.30;;;2.32;57.22;94952.19;4984136;28;20208;-31
2023/03/03 02:26:41;;;;;;;0.80;0.80;;;2.60;69.00;;;2.27;58.47;94944.03;5012961;28;20286;-18
2023/03/03 02:29:10;;;;;;;0.73;0.73;;;2.60;69.40;;;2.29;58.45;94944.69;5015481;28;20205;-19
2023/03/03 02:31:38;;;;;;;0.63;0.63;;;2.60;69.60;;;2.25;59.24;94948.53;5016068;28;20211;-34
2023/03/03 02:34:05;;;;;;;0.80;0.80;;;2.60;69.80;;;2.30;58.96;94951.50;4999549;28;20197;-18
2023/03/03 02:36:37;;;;;;;0.80;0.80;;;2.60;70.00;;;2.30;58.04;94940.34;4999340;28;20200;-18
2023/03/03 02:39:15;;;;;;;0.70;0.70;;;2.60;69.80;;;2.32;57.98;94943.59;5015570;28;20201;-19
2023/03/03 02:41:52;;;;;;;0.90;0.90;;;2.60;69.60;;;2.28;58.23;94942.25;5016826;28;20174;-19
2023/03/03 02:44:25;;;;;;;0.80;0.80;;;2.60;70.60;;;2.26;58.66;94941.56;4983358;28;20645;-19
2023/03/03 02:46:54;;;;;;;0.80;0.80;;;2.60;69.90;;;2.26;58.66;94944.16;5015455;28;20590;-19
2023/03/03 02:49:28;;;;;;;0.73;0.73;;;2.50;69.90;;;2.28;58.01;94950.03;5015312;28;20205;-19
2023/03/03 02:51:56;;;;;;;0.80;0.80;;;2.60;69.90;;;2.28;57.95;94942.25;4983644;28;20201;-19
2023/03/03 02:54:29;;;;;;;0.90;0.90;;;2.60;70.80;;;2.28;58.04;94939.69;4983140;28;20585;-19
2023/03/03 02:56:58;;;;;;;0.90;0.90;;;2.60;69.80;;;2.29;58.57;94933.53;5014483;28;20193;-19
2023/03/03 02:59:26;;;;;;;0.70;0.70;;;2.60;69.80;;;2.31;58.24;94929.84;5015238;28;20532;-19
2023/03/03 03:01:55;;;;;;;0.90;0.90;;;2.60;69.80;;;2.33;57.92;94935.72;5016018;28;20229;-19
2023/03/03 03:04:26;;;;;;;0.75;0.75;;;2.60;70.00;;;2.34;58.34;94937.31;5016360;28;20212;-19
2023/03/03 03:06:54;;;;;;;0.80;0.80;;;2.60;70.00;;;2.34;57.99;94944.28;5015201;28;20193;-18
2023/03/03 03:09:25;;;;;;;0.70;0.70;;;2.60;69.80;;;2.36;57.86;94947.56;5014890;28;20208;-18
2023/03/03 03:11:53;;;;;;;0.80;0.80;;;2.60;69.80;;;2.33;57.74;94948.66;5015039;28;20193;-20
2023/03/03 03:14:24;;;;;;;0.80;0.80;;;2.60;69.70;;;2.32;57.80;94938.44;4983135;28;20197;-18
2023/03/03 03:16:52;;;;;;;0.77;0.77;;;2.60;69.60;;;2.32;57.35;94948.78;5014974;28;20205;-19
2023/03/03 03:19:20;;;;;;;0.70;0.70;;;2.60;69.50;;;2.27;57.06;94941.47;4998487;28;20201;-18
2023/03/03 03:21:47;;;;;;;0.80;0.80;;;2.60;69.40;;;2.20;58.18;94932.63;4998827;28;20629;-19
2023/03/03 03:24:15;;;;;;;0.70;0.70;;;2.60;69.60;;;2.19;58.91;94939.56;4998748;28;20208;-19
2023/03/03 03:26:47;;;;;;;0.80;0.80;;;2.50;69.90;;;2.21;58.45;94937.66;5014828;28;20203;-19
2023/03/03 03:29:14;;;;;;;0.80;0.80;;;2.50;70.00;;;2.15;59.71;94929.59;5015798;28;20205;-19
2023/03/03 03:31:42;;;;;;;0.70;0.70;;;2.50;70.60;;;2.16;58.73;94924.31;5014664;28;20240;-20
2023/03/03 03:34:09;;;;;;;0.70;0.70;;;2.50;70.60;;;2.21;58.76;94931.63;5015881;28;20216;-19
2023/03/03 03:36:38;;;;;;;1.00;1.00;;;2.50;70.30;;;2.18;58.84;94929.34;5015868;28;20197;-19
2023/03/03 03:39:06;;;;;;;0.80;0.80;;;2.50;70.30;;;2.16;59.57;94934.66;5014465;28;20213;-19
2023/03/03 03:41:36;;;;;;;0.70;0.70;;;2.50;70.60;;;2.16;59.00;94934.66;4998265;28;20209;-19
2023/03/03 03:44:04;;;;;;;0.80;0.80;;;2.50;70.60;;;2.18;58.77;94943.09;5014479;28;20209;-19
2023/03/03 03:46:31;;;;;;;0.70;0.70;;;2.50;70.60;;;2.15;58.74;94934.78;5015452;28;20268;-19
2023/03/03 03:48:58;;;;;;;0.70;0.70;;;2.50;70.60;;;2.14;58.72;94928.81;5015326;28;20194;-19
2023/03/03 03:51:25;;;;;;;0.80;0.80;;;2.50;70.50;;;2.11;59.49;94933.44;5014387;28;20556;-18
2023/03/03 03:53:52;;;;;;;0.80;0.80;;;2.50;70.60;;;2.08;60.06;94932.75;4998326;28;20247;-19
2023/03/03 03:56:19;;;;;;;0.80;0.80;;;2.50;70.60;;;2.07;59.95;94931.13;4998095;28;20220;-21
2023/03/03 03:58:51;;;;;;;0.90;0.90;;;2.50;70.60;;;2.04;60.41;94928.03;4997871;28;20193;-19
2023/03/03 04:01:17;;;;;;;0.80;0.80;;;2.50;70.60;;;2.03;60.73;94931.56;4994525;28;20280;-19
2023/03/03 04:03:48;;;;;;;0.82;0.82;;;2.50;71.80;;;2.00;60.67;94926.66;4996231;28;20198;-20
2023/03/03 04:06:20;;;;;;;0.80;0.80;;;2.50;72.00;;;2.02;60.49;94928.13;5011313;28;20209;-19
2023/03/03 04:08:47;;;;;;;0.80;0.80;;;2.40;71.10;;;2.07;59.45;94925.94;5010727;28;20206;-18
2023/03/03 04:11:16;;;;;;;0.80;0.80;;;2.40;70.60;;;2.06;59.37;94931.25;5010909;28;20210;-19
2023/03/03 04:13:43;;;;;;;0.75;0.75;;;2.40;70.60;;;2.07;58.83;94933.72;4995531;28;20197;-18
2023/03/03 04:16:11;;;;;;;0.70;0.70;;;2.40;70.60;;;2.04;59.19;94939.19;5010914;28;20202;-19
2023/03/03 04:18:41;;;;;;;0.70;0.70;;;2.40;70.50;;;2.01;58.57;94934.25;4994404;28;20208;-19
2023/03/03 04:21:14;;;;;;;0.90;0.90;;;2.40;70.50;;;1.98;58.92;94934.56;5010929;28;20206;-19
2023/03/03 04:23:41;;;;;;;0.60;0.60;;;2.30;70.50;;;1.95;58.94;94942.56;5011465;28;20289;-18
2023/03/03 04:26:09;;;;;;;0.80;0.80;;;2.30;70.50;;;1.91;58.88;94933.47;4994509;28;20281;-19
2023/03/03 04:28:37;;;;;;;0.80;0.80;;;2.30;70.50;;;1.88;58.09;94934.56;4994291;28;20547;-19
2023/03/03 04:31:04;;;;;;;0.73;0.73;;;2.30;70.50;;;1.87;57.77;94945.84;5010663;28;20210;-20
2023/03/03 04:33:32;;;;;;;0.80;0.80;;;2.20;70.00;;;1.82;57.39;94935.13;5010710;28;20206;-18
2023/03/03 04:36:00;;;;;;;0.70;0.70;;;2.20;69.80;;;1.73;56.93;94934.19;4994396;28;20229;-19
2023/03/03 04:38:28;;;;;;;0.70;0.70;;;2.10;69.60;;;1.67;56.91;94941.66;5010572;28;20281;-18
2023/03/03 04:40:56;;;;;;;0.80;0.80;;;2.10;69.60;;;1.59;57.09;94950.91;5010650;28;20264;-18
2023/03/03 04:43:24;;;;;;;0.70;0.70;;;2.00;69.60;;;1.53;57.31;94948.84;5010603;28;20210;-19
2023/03/03 04:45:52;;;;;;;0.80;0.80;;;1.90;69.60;;;1.47;57.07;94946.00;4994274;28;20328;-19
2023/03/03 04:48:21;;;;;;;0.80;0.80;;;1.90;69.50;;;1.39;57.55;94951.81;4978426;28;20559;-18
2023/03/03 04:50:48;;;;;;;0.75;0.75;;;1.80;69.60;;;1.33;59.39;94960.94;5010655;28;20233;-18
2023/03/03 04:53:15;;;;;;;0.70;0.70;;;1.70;70.10;;;1.27;59.76;94957.13;4995222;28;20191;-18
2023/03/03 04:55:42;;;;;;;0.80;0.80;;;1.70;70.10;;;1.24;60.60;94961.72;5010537;28;20233;-19
2023/03/03 04:58:10;;;;;;;0.70;0.70;;;1.60;70.50;;;1.22;60.69;94958.47;4995076;28;20213;-18
2023/03/03 05:00:38;;;;;;;0.88;0.88;;;1.60;71.00;;;1.18;62.10;94950.16;4993998;28;20316;-19
2023/03/03 05:03:07;;;;;;;0.90;0.90;;;1.60;71.50;;;1.20;62.30;94956.03;5010601;28;20194;-19
2023/03/03 05:05:34;;;;;;;0.70;0.70;;;1.60;71.80;;;1.24;61.95;94962.53;4993957;28;20234;-18
2023/03/03 05:08:01;;;;;;;0.80;0.80;;;1.60;72.00;;;1.30;61.77;94963.78;4994875;28;20237;-19
2023/03/03 05:10:28;;;;;;;0.85;0.85;;;1.60;72.20;;;1.37;61.61;94964.88;4994931;28;20222;-18
2023/03/03 05:12:55;;;;;;;0.70;0.70;;;1.60;72.30;;;1.44;61.51;94967.75;4994163;28;20190;-20
2023/03/03 05:15:23;;;;;;;0.70;0.70;;;1.70;72.60;;;1.48;62.14;94960.53;4993987;28;20206;-19
2023/03/03 05:17:52;;;;;;;0.70;0.70;;;1.80;72.90;;;1.54;62.61;94970.38;4994954;28;20642;-19
2023/03/03 05:20:19;;;;;;;0.90;0.90;;;1.80;73.10;;;1.57;62.21;94968.31;4996267;28;20198;-18
2023/03/03 05:22:46;;;;;;;0.70;0.70;;;1.90;73.30;;;1.63;62.58;94969.53;4998450;28;20205;-18
2023/03/03 05:25:13;;;;;;;0.85;0.85;;;1.90;73.30;;;1.65;62.50;94980.56;5013750;28;20194;-19
2023/03/03 05:27:40;;;;;;;0.70;0.70;;;2.00;73.50;;;1.69;62.16;94974.16;4998905;28;20209;-19
2023/03/03 05:30:09;;;;;;;0.70;0.70;;;2.00;73.50;;;1.73;62.22;94974.72;4998095;28;20189;-19
2023/03/03 05:32:36;;;;;;;0.90;0.90;;;2.10;73.50;;;1.76;62.16;94972.66;4998278;28;20254;-19
2023/03/03 05:35:05;;;;;;;0.80;0.80;;;2.10;73.40;;;1.77;62.47;94978.69;4998242;28;20204;-18
2023/03/03 05:37:32;;;;;;;0.70;0.70;;;2.10;73.40;;;1.78;62.41;94977.69;4998471;28;20194;-19
2023/03/03 05:39:59;;;;;;;0.80;0.80;;;2.20;73.30;;;1.77;62.49;94983.84;5013388;28;20201;-18
2023/03/03 05:42:26;;;;;;;0.80;0.80;;;2.20;73.40;;;1.78;62.58;94979.47;4998062;28;20189;-19
2023/03/03 05:44:53;;;;;;;0.80;0.80;;;2.10;73.30;;;1.78;62.59;94982.06;4998271;28;20301;-19
2023/03/03 05:47:20;;;;;;;0.70;0.70;;;2.20;73.40;;;1.75;63.30;94975.41;4998028;28;20217;-18
2023/03/03 05:49:47;;;;;;;0.80;0.80;;;2.20;73.70;;;1.79;63.15;94981.94;5013466;28;20206;-19
2023/03/03 05:52:14;;;;;;;0.85;0.85;;;2.20;73.70;;;1.81;63.86;94974.84;4997920;28;20217;-19
2023/03/03 05:54:41;;;;;;;0.70;0.70;;;2.20;74.20;;;1.82;63.52;94981.66;4997908;28;20265;-19
2023/03/03 05:57:08;;;;;;;0.80;0.80;;;2.20;74.60;;;1.84;63.51;94973.75;4997959;28;20637;-19
2023/03/03 05:59:36;;;;;;;0.80;0.80;;;2.20;74.60;;;1.88;63.66;94969.94;4996901;28;20198;-19
2023/03/03 06:02:04;;;;;;;0.70;0.70;;;2.30;74.70;;;1.89;64.00;94980.16;4997220;28;20284;-25
2023/03/03 06:04:31;;;;;;;0.80;0.80;;;2.30;74.80;;;1.85;63.88;94973.63;5013149;28;20202;-18
2023/03/03 06:06:58;;;;;;;0.75;0.75;;;2.30;74.70;;;1.88;63.80;94982.88;4997639;28;20198;-18
2023/03/03 06:09:25;;;;;;;0.80;0.80;;;2.30;74.70;;;1.91;64.04;94982.63;4980415;28;20210;-19
2023/03/03 06:11:52;;;;;;;0.90;0.90;;;2.30;74.80;;;1.90;64.02;94971.47;4997778;28;20280;-18
2023/03/03 06:14:20;;;;;;;0.80;0.80;;;2.30;75.00;;;1.93;64.07;94980.72;4980478;28;20282;-18
2023/03/03 06:16:48;;;;;;;0.80;0.80;;;2.40;75.00;;;1.94;64.09;94990.09;5012801;28;20209;-19
2023/03/03 06:19:16;;;;;;;0.60;0.60;;;2.40;75.00;;;1.96;64.23;94989.97;4997635;28;20198;-18
2023/03/03 06:21:43;;;;;;;0.70;0.70;;;2.40;75.10;;;2.01;64.19;94988.59;4997338;28;20206;-18
2023/03/03 06:24:11;;;;;;;0.70;0.70;;;2.40;75.20;;;2.02;64.04;94990.22;4997509;28;20245;-18
2023/03/03 06:26:38;;;;;;;0.80;0.80;;;2.40;75.20;;;2.12;63.92;95008.31;4997582;28;20195;-18
2023/03/03 06:29:05;;;;;;;0.80;0.80;;;2.50;75.30;;;2.14;64.03;95005.63;4997118;28;20202;-18
2023/03/03 06:31:33;;;;;;;0.80;0.80;;;2.50;75.20;;;2.15;64.14;95007.22;4997135;28;20217;-18
2023/03/03 06:34:00;;;;;;;0.80;0.80;;;2.60;75.30;;;2.20;63.92;95005.88;4997396;28;20198;-20
2023/03/03 06:36:27;;;;;;;0.70;0.70;;;2.60;75.30;;;2.24;64.13;95009.00;4997093;28;20194;-20
2023/03/03 06:38:54;;;;;;;0.80;0.80;;;2.60;75.40;;;2.27;63.79;95006.16;4996719;28;20197;-19
2023/03/03 06:41:21;;;;;;;0.90;0.90;;;2.60;75.30;;;2.30;64.06;95016.22;5012302;28;20198;-18
2023/03/03 06:43:48;;;;;;;0.75;0.75;;;2.70;75.30;;;2.34;63.73;95012.38;4996929;28;20260;-18
2023/03/03 06:46:16;;;;;;;0.80;0.80;;;2.70;75.20;;;2.39;63.74;95004.22;4996893;28;20208;-19
2023/03/03 06:48:43;;;;;;;0.80;0.80;;;2.80;76.10;;;2.42;63.76;95022.06;4996694;28;20260;-18
2023/03/03 06:51:35;;;;;;;0.70;0.70;;;2.80;75.20;;;2.48;63.66;95020.69;4997001;28;20552;-19
2023/03/03 06:54:11;;;;;;;0.80;0.80;;;2.90;75.20;;;2.52;63.35;95024.63;4996707;28;20660;-18
2023/03/03 06:56:39;;;;;;;0.80;0.80;;;2.90;75.00;;;2.56;63.37;95032.00;4997110;28;20189;-18
2023/03/03 06:59:19;;;;;;;0.70;0.70;;;3.00;75.50;;;2.61;62.99;95023.78;4996486;28;20588;-18
2023/03/03 07:01:48;;;;;;;0.80;0.80;;;3.00;74.90;;;2.70;62.79;95028.13;5012384;28;20235;-19
2023/03/03 07:04:18;;;;;;;0.60;0.60;;;3.10;74.80;;;2.82;62.37;95030.56;5016131;28;20570;-19
2023/03/03 07:06:45;;;;;;;0.70;0.70;;;3.20;74.70;;;2.87;62.31;95024.00;5016137;28;20526;-18
2023/03/03 07:09:25;;;;;;;0.80;0.80;;;3.30;74.50;;;2.99;62.18;95016.03;5015852;28;20649;-19
2023/03/03 07:11:59;;;;;;;0.68;0.68;;;3.40;74.30;;;3.08;61.56;95010.00;5015952;28;20296;-18
2023/03/03 07:14:29;;;;;;;0.60;0.60;;;3.50;74.10;;;3.20;61.36;94997.69;5015170;28;20188;-19
2023/03/03 07:17:00;;;;;;;0.80;0.80;;;3.60;73.90;;;3.29;61.02;95014.97;5015909;28;20198;-19
2023/03/03 07:19:33;;;;;;;0.60;0.60;;;3.70;73.80;;;3.38;61.04;95013.28;5015922;28;20181;-20
2023/03/03 07:22:23;;;;;;;0.80;0.80;;;3.80;73.80;;;3.45;60.81;95008.34;5015879;28;20190;-18
2023/03/03 07:24:54;;;;;;;0.80;0.80;;;3.90;73.60;;;3.56;60.34;95012.50;4998954;28;20277;-19
2023/03/03 07:27:29;;;;;;;0.80;0.80;;;4.00;73.50;;;3.63;60.18;95011.78;5016368;28;20277;-19
2023/03/03 07:30:26;;;;;;;0.70;0.70;;;4.00;73.20;;;3.73;59.85;95019.47;5015721;28;20189;-18
2023/03/03 07:32:57;;;;;;;0.80;0.80;;;4.10;73.10;;;3.78;60.34;95022.44;5015896;28;20217;-18
2023/03/03 07:35:42;;;;;;;0.70;0.70;;;4.20;73.20;;;3.86;60.33;95029.50;5015976;28;20177;-18
2023/03/03 07:38:27;;;;;;;0.60;0.60;;;4.30;73.10;;;3.94;59.97;95026.19;5015092;28;20178;-19
2023/03/03 07:40:58;;;;;;;0.80;0.80;;;4.30;73.10;;;4.04;59.21;95026.94;5015455;28;20190;-18
2023/03/03 07:44:03;;;;;;;0.50;0.50;;;4.40;72.80;;;4.13;59.40;95027.81;5015695;28;20186;-19
2023/03/03 07:46:44;;;;;;;0.77;0.77;;;4.50;72.60;;;4.24;59.40;95026.78;4998785;28;20199;-18
2023/03/03 07:49:35;;;;;;;0.70;0.70;;;4.60;72.50;;;4.35;58.91;95023.13;5014708;28;20220;-19
2023/03/03 07:52:28;;;;;;;0.80;0.80;;;4.70;72.20;;;4.43;58.31;95024.00;5015397;28;20202;-18
2023/03/03 07:54:58;;;;;;;0.80;0.80;;;4.80;72.20;;;4.54;57.85;95022.94;5015688;28;20181;-18
2023/03/03 07:57:38;;;;;;;0.80;0.80;;;4.90;72.30;;;4.61;56.76;95015.34;5015488;28;20185;-19
2023/03/03 08:00:28;;;;;;;0.80;0.80;;;4.90;71.50;;;4.70;57.15;95008.41;5015174;28;20256;-18
2023/03/03 08:03:22;;;;;;;0.80;0.80;;;5.00;71.60;;;4.77;56.85;95015.47;5015239;28;20633;-18
2023/03/03 08:05:50;;;;;;;0.80;0.80;;;5.10;71.40;;;4.89;57.09;95016.00;5015760;28;20221;-18
2023/03/03 08:08:32;;;;;;;0.70;0.70;;;5.20;71.40;;;4.93;57.12;95019.94;5014351;28;20199;-18
2023/03/03 08:11:01;;;;;;;0.80;0.80;;;5.30;71.40;;;5.03;56.47;95021.59;4998068;28;20711;-18
2023/03/03 08:13:36;;;;;;;0.70;0.70;;;5.40;71.20;;;5.10;56.77;95033.00;5015176;28;20255;-18
2023/03/03 08:16:28;;;;;;;0.60;0.60;;;5.40;71.30;;;5.18;56.29;95030.47;5015404;28;20200;-18
2023/03/03 08:19:01;;;;;;;0.65;0.65;;;5.50;71.00;;;5.25;56.21;95030.66;5015336;28;20202;-18
2023/03/03 08:21:30;;;;;;;0.70;0.70;;;5.60;70.80;;;5.34;55.88;95034.13;5014935;28;20189;-20
2023/03/03 08:23:57;;;;;;;0.70;0.70;;;5.70;70.90;;;5.40;56.04;95034.28;5015002;28;20211;-18
2023/03/03 08:26:26;;;;;;;0.75;0.75;;;5.70;70.80;;;5.51;56.93;95042.81;5015573;28;20197;-18
2023/03/03 08:28:54;;;;;;;0.70;0.70;;;5.80;71.10;;;5.61;55.82;95052.13;5015245;28;20284;-18
2023/03/03 08:31:21;;;;;;;0.70;0.70;;;5.90;70.70;;;5.73;54.75;95059.63;4997874;28;20224;-18
2023/03/03 08:34:06;;;;;;;0.70;0.70;;;6.10;70.30;;;5.81;54.12;95054.44;5015297;28;20243;-18
2023/03/03 08:36:33;;;;;;;0.90;0.90;;;6.20;69.90;;;5.94;54.80;95064.38;5014952;28;20197;-19
2023/03/03 08:39:03;;;;;;;0.60;0.60;;;6.20;70.20;;;6.03;54.94;95070.44;5014929;28;20284;-18
2023/03/03 08:41:30;;;;;;;0.80;0.80;;;6.30;70.20;;;6.16;55.01;95072.59;5014814;28;20232;-18
2023/03/03 08:43:57;;;;;;;0.60;0.60;;;6.40;70.20;;;6.20;54.30;95064.31;5014890;28;20203;-18
2023/03/03 08:46:24;;;;;;;0.70;0.70;;;6.50;69.80;;;6.28;54.65;95067.91;5014823;28;20208;-18
2023/03/03 08:48:51;;;;;;;0.80;0.80;;;6.60;69.90;;;6.36;53.38;95068.72;5014796;28;20204;-18
2023/03/03 08:51:19;;;;;;;0.70;0.70;;;6.70;69.30;;;6.46;53.29;95075.56;5014606;28;20213;-19
2023/03/03 08:53:46;;;;;;;0.80;0.80;;;6.80;69.10;;;6.56;53.37;95078.84;5015059;28;20197;-18
2023/03/03 08:56:13;;;;;;;0.70;0.70;;;6.90;69.10;;;6.59;52.64;95081.09;5018846;28;20211;-19
2023/03/03 08:58:46;;;;;;;0.80;0.80;;;6.90;68.70;;;6.62;52.64;95086.00;5018522;28;20198;-18
2023/03/03 09:01:27;;;;;;;0.80;0.80;;;7.00;68.50;;;6.68;53.38;95092.38;5018230;28;20336;-18
2023/03/03 09:03:55;;;;;;;0.70;0.70;;;7.10;69.00;;;6.79;53.61;95089.41;5019225;28;20196;-19
2023/03/03 09:06:22;;;;;;;0.60;0.60;;;7.10;69.10;;;6.89;53.40;95084.84;5018938;28;20552;-18
2023/03/03 09:08:49;;;;;;;0.60;0.60;;;7.20;68.80;;;6.99;53.26;95083.84;5018342;28;20194;-18
2023/03/03 09:11:26;;;;;;;0.80;0.80;;;7.30;69.00;;;7.10;53.26;95082.72;5018091;28;20217;-18
2023/03/03 09:14:14;;;;;;;0.90;0.90;;;7.40;68.90;;;7.16;51.67;95087.25;5017748;28;20170;-19
2023/03/03 09:16:50;;;;;;;0.73;0.73;;;7.50;68.00;;;7.16;51.96;95077.63;5018523;28;20213;-18
2023/03/03 09:19:31;;;;;;;0.60;0.60;;;7.60;68.00;;;7.26;51.91;95076.63;5018220;28;20192;-18
2023/03/03 09:22:20;;;;;;;0.70;0.70;;;7.60;67.90;;;7.30;52.05;95090.97;5018032;28;20247;-19
2023/03/03 09:24:49;;;;;;;0.70;0.70;;;7.60;67.90;;;7.40;52.05;95080.34;5018332;28;20261;-19
2023/03/03 09:27:29;;;;;;;0.70;0.70;;;7.70;68.00;;;7.49;51.86;95074.13;5017982;28;20201;-18
2023/03/03 09:30:03;;;;;;;0.70;0.70;;;7.80;67.80;;;7.61;51.48;95079.81;5017850;28;20629;-18
2023/03/03 09:32:41;;;;;;;0.60;0.60;;;7.90;67.70;;;7.70;50.97;95073.53;5000959;28;20543;-18
2023/03/03 09:35:34;;;;;;;0.70;0.70;;;8.00;67.60;;;7.80;50.13;95070.72;5018212;28;20184;-18
2023/03/03 09:38:41;;;;;;;0.80;0.80;;;8.10;67.10;;;7.87;50.56;95058.63;5018109;28;20186;-18
2023/03/03 09:41:47;;;;;;;0.70;0.70;;;8.20;66.90;;;7.97;49.31;95067.06;5017863;28;20169;-18
2023/03/03 09:44:55;;;;;;;0.60;0.60;;;8.30;66.50;;;8.05;49.92;95062.78;5017177;28;20220;-18
2023/03/03 09:48:12;;;;;;;0.70;0.70;;;8.40;66.30;;;8.14;49.71;95066.97;5017906;28;20552;-19
2023/03/03 09:51:11;;;;;;;0.77;0.77;;;8.40;66.40;;;8.18;48.46;95056.00;5017671;28;20205;-19
2023/03/03 09:54:03;;;;;;;0.70;0.70;;;8.50;65.70;;;8.25;48.03;95055.31;5017847;28;20181;-18
2023/03/03 09:56:34;;;;;;;0.70;0.70;;;8.60;65.50;;;8.34;48.17;95042.00;5000789;28;20200;-18
2023/03/03 09:59:24;;;;;;;0.60;0.60;;;8.60;65.20;;;8.42;48.35;95037.72;5017011;28;20216;-18
2023/03/03 10:02:22;;;;;;;0.65;0.65;;;8.70;65.20;;;8.52;47.81;95047.94;5017130;28;20230;-18
2023/03/03 10:05:25;;;;;;;0.80;0.80;;;8.80;65.30;;;8.62;48.07;95051.16;5017260;28;20268;-18
2023/03/03 10:08:10;;;;;;;0.70;0.70;;;8.90;65.60;;;8.73;47.44;95044.69;4985345;28;20240;-18
2023/03/03 10:11:01;;;;;;;0.60;0.60;;;9.10;64.80;;;8.79;46.55;95036.13;5017242;28;20184;-18
2023/03/03 10:13:57;;;;;;;0.80;0.80;;;9.20;64.70;;;8.86;47.03;95042.28;5016258;28;20645;-18
2023/03/03 10:16:33;;;;;;;0.77;0.77;;;9.20;64.50;;;8.93;46.87;95045.78;5017042;28;20194;-19
2023/03/03 10:19:40;;;;;;;0.70;0.70;;;9.30;64.30;;;9.02;45.42;95051.78;5000216;28;20209;-19
2023/03/03 10:22:43;;;;;;;0.70;0.70;;;9.40;64.10;;;9.04;45.49;95046.38;5016854;28;20637;-18
2023/03/03 10:26:00;;;;;;;0.70;0.70;;;9.40;63.40;;;9.09;46.54;95060.53;5017157;28;20193;-19
2023/03/03 10:28:52;;;;;;;0.60;0.60;;;9.50;63.60;;;9.19;46.73;95062.91;4972198;28;20209;-18
2023/03/03 10:31:44;;;;;;;0.70;0.70;;;9.60;64.00;;;9.20;45.47;95059.25;5016873;28;20185;-18
2023/03/03 10:34:38;;;;;;;0.60;0.60;;;9.60;63.30;;;9.29;45.54;95062.63;5017023;28;20640;-18
2023/03/03 10:37:43;;;;;;;0.60;0.60;;;9.60;63.50;;;9.36;44.61;95060.94;5017069;28;20185;-18
2023/03/03 10:40:24;;;;;;;0.60;0.60;;;9.70;63.40;;;9.37;44.96;95065.13;5017062;28;20192;-18
2023/03/03 10:43:38;;;;;;;0.60;0.60;;;9.70;62.90;;;9.43;44.32;95067.03;5016732;28;20192;-19
2023/03/03 10:46:36;;;;;;;0.70;0.70;;;9.80;62.80;;;9.41;45.19;95074.28;5016657;28;20181;-19
2023/03/03 10:49:18;;;;;;;0.70;0.70;;;9.80;63.00;;;9.49;45.01;95069.94;5000076;28;20208;-20
2023/03/03 10:52:10;;;;;;;0.60;0.60;;;9.80;63.00;;;9.55;43.74;95074.47;5016531;28;20248;-19
2023/03/03 10:55:06;;;;;;;0.70;0.70;;;9.90;62.40;;;9.62;43.63;95067.50;4999517;28;20182;-19
2023/03/03 10:58:34;;;;;;;0.70;0.70;;;9.90;62.10;;;9.72;44.44;95064.59;5016721;28;20240;-18
2023/03/03 11:01:21;;;;;;;0.60;0.60;;;10.00;61.30;;;9.79;45.13;95052.41;4994106;28;20237;-19
2023/03/03 11:04:10;;;;;;;0.80;0.80;;;10.10;61.40;;;9.93;45.32;95056.78;5011936;28;20636;-19
2023/03/03 11:07:11;;;;;;;0.70;0.70;;;10.20;61.70;;;10.04;43.55;95058.13;4997040;28;20622;-19